createdAt,value
2022-08-03T00:02:18.342Z,99.90
2022-08-03T00:04:46.710Z,99.90
2022-08-03T00:07:14.775Z,99.90
2022-08-03T00:09:42.782Z,99.90
2022-08-03T00:12:10.824Z,99.90
2022-08-03T00:14:40.180Z,99.90
2022-08-03T00:17:08.618Z,99.90
2022-08-03T00:19:36.630Z,99.90
2022-08-03T00:22:04.618Z,99.90
2022-08-03T00:24:32.653Z,99.90
2022-08-03T00:27:00.632Z,99.90
2022-08-03T00:29:28.762Z,99.90
2022-08-03T00:32:00.522Z,99.90
2022-08-03T00:34:36.408Z,99.90
2022-08-03T00:37:17.076Z,99.90
2022-08-03T00:39:47.258Z,99.90
2022-08-03T00:42:15.606Z,99.90
2022-08-03T00:44:44.517Z,99.90
2022-08-03T00:47:13.941Z,99.90
2022-08-03T00:49:42.476Z,99.90
2022-08-03T00:52:10.858Z,99.90
2022-08-03T00:54:39.244Z,99.90
2022-08-03T00:57:07.776Z,99.90
2022-08-03T00:59:36.977Z,99.90
2022-08-03T01:02:05.067Z,99.90
2022-08-03T01:04:34.536Z,99.90
2022-08-03T01:07:10.827Z,99.90
2022-08-03T01:09:42.115Z,99.90
2022-08-03T01:12:15.517Z,99.90
2022-08-03T01:14:47.132Z,99.90
2022-08-03T01:17:18.331Z,99.90
2022-08-03T01:19:55.102Z,99.90
2022-08-03T01:22:31.417Z,99.90
2022-08-03T01:25:04.173Z,99.90
2022-08-03T01:27:37.949Z,99.90
2022-08-03T01:30:08.945Z,99.90
2022-08-03T01:32:53.556Z,99.90
2022-08-03T01:35:30.571Z,99.90
2022-08-03T01:38:02.020Z,99.90
2022-08-03T01:40:31.063Z,99.90
2022-08-03T01:43:00.680Z,99.90
2022-08-03T01:45:34.249Z,99.90
2022-08-03T01:48:02.932Z,99.90
2022-08-03T01:50:31.886Z,99.90
2022-08-03T01:53:00.253Z,99.90
2022-08-03T01:55:29.349Z,99.90
2022-08-03T01:58:05.964Z,99.90
2022-08-03T02:00:36.669Z,99.90
2022-08-03T02:03:06.028Z,99.90
2022-08-03T02:05:35.231Z,99.90
2022-08-03T02:08:04.753Z,99.90
2022-08-03T02:10:35.806Z,99.90
2022-08-03T02:13:04.922Z,99.90
2022-08-03T02:15:33.957Z,99.90
2022-08-03T02:18:04.426Z,99.90
2022-08-03T02:20:36.380Z,99.90
2022-08-03T02:23:04.770Z,99.90
2022-08-03T02:25:33.466Z,99.90
2022-08-03T02:28:05.878Z,99.90
2022-08-03T02:30:37.933Z,99.90
2022-08-03T02:33:09.242Z,99.90
2022-08-03T02:35:38.194Z,99.90
2022-08-03T02:38:08.734Z,99.90
2022-08-03T02:40:37.570Z,99.90
2022-08-03T02:43:08.874Z,99.90
2022-08-03T02:45:37.688Z,99.90
2022-08-03T02:48:08.378Z,99.90
2022-08-03T02:50:36.701Z,99.90
2022-08-03T02:53:05.573Z,99.90
2022-08-03T02:55:36.256Z,99.90
2022-08-03T02:58:12.849Z,99.90
2022-08-03T03:00:41.568Z,99.90
2022-08-03T03:03:11.304Z,99.90
2022-08-03T03:05:54.961Z,99.90
2022-08-03T03:08:28.079Z,99.90
2022-08-03T03:10:57.450Z,99.90
2022-08-03T03:13:25.869Z,99.90
2022-08-03T03:15:54.137Z,99.90
2022-08-03T03:18:24.155Z,99.90
2022-08-03T03:20:52.796Z,99.90
2022-08-03T03:23:21.657Z,99.90
2022-08-03T03:25:49.821Z,99.90
2022-08-03T03:28:18.054Z,99.90
2022-08-03T03:30:52.618Z,99.90
2022-08-03T03:33:21.733Z,99.90
2022-08-03T03:35:51.732Z,99.90
2022-08-03T03:38:19.923Z,99.90
2022-08-03T03:40:48.152Z,99.90
2022-08-03T03:43:17.032Z,99.90
2022-08-03T03:45:45.524Z,99.90
2022-08-03T03:48:13.642Z,99.90
2022-08-03T03:50:41.618Z,99.90
2022-08-03T03:53:12.051Z,99.90
2022-08-03T03:55:59.418Z,99.90
2022-08-03T03:58:28.212Z,99.90
2022-08-03T04:00:56.286Z,99.90
2022-08-03T04:03:24.346Z,99.90
2022-08-03T04:06:10.116Z,99.90
2022-08-03T04:08:57.276Z,99.90
2022-08-03T04:11:29.041Z,99.90
2022-08-03T04:14:01.908Z,99.90
2022-08-03T04:16:31.805Z,99.90
2022-08-03T04:19:01.793Z,99.90
2022-08-03T04:21:30.617Z,99.90
2022-08-03T04:24:02.982Z,99.90
2022-08-03T04:26:32.442Z,99.90
2022-08-03T04:29:01.616Z,99.90
2022-08-03T04:31:31.085Z,99.90
2022-08-03T04:33:59.377Z,99.90
2022-08-03T04:36:27.965Z,99.90
2022-08-03T04:38:59.220Z,99.90
2022-08-03T04:41:29.074Z,99.90
2022-08-03T04:43:58.801Z,99.90
2022-08-03T04:46:27.858Z,99.90
2022-08-03T04:48:56.084Z,99.90
2022-08-03T04:51:24.540Z,99.90
2022-08-03T04:53:52.966Z,99.90
2022-08-03T04:56:21.037Z,99.90
2022-08-03T04:58:50.418Z,99.90
2022-08-03T05:01:20.477Z,99.90
2022-08-03T05:03:48.562Z,99.90
2022-08-03T05:06:16.585Z,99.90
2022-08-03T05:08:46.123Z,99.90
2022-08-03T05:11:15.543Z,99.90
2022-08-03T05:13:43.649Z,99.90
2022-08-03T05:16:13.963Z,99.90
2022-08-03T05:18:42.017Z,99.90
2022-08-03T05:21:10.202Z,99.90
2022-08-03T05:23:38.740Z,99.90
2022-08-03T05:26:06.780Z,99.90
2022-08-03T05:28:34.832Z,99.90
2022-08-03T05:31:03.286Z,99.90
2022-08-03T05:33:32.731Z,99.90
2022-08-03T05:36:04.166Z,99.90
2022-08-03T05:38:34.085Z,99.90
2022-08-03T05:41:22.581Z,99.90
2022-08-03T05:43:50.628Z,99.90
2022-08-03T05:46:18.661Z,99.90
2022-08-03T05:48:48.032Z,99.90
2022-08-03T05:51:16.051Z,99.90
2022-08-03T05:53:44.397Z,99.90
2022-08-03T05:56:14.553Z,99.90
2022-08-03T05:58:43.822Z,99.90
2022-08-03T06:01:11.942Z,99.90
2022-08-03T06:03:40.026Z,99.90
2022-08-03T06:06:09.637Z,99.90
2022-08-03T06:08:37.773Z,99.90
2022-08-03T06:11:05.953Z,99.90
2022-08-03T06:13:34.160Z,99.90
2022-08-03T06:16:02.133Z,99.90
2022-08-03T06:18:30.127Z,99.90
2022-08-03T06:20:58.177Z,99.90
2022-08-03T06:23:54.356Z,99.90
2022-08-03T06:26:27.882Z,99.90
2022-08-03T06:28:56.107Z,99.90
2022-08-03T06:31:32.499Z,99.90
2022-08-03T06:34:33.865Z,99.90
2022-08-03T06:36:53.326Z,99.90
2022-08-03T06:39:23.906Z,99.90
2022-08-03T06:41:52.836Z,99.90
2022-08-03T06:44:21.053Z,99.90
2022-08-03T06:46:49.057Z,99.90
2022-08-03T06:49:17.209Z,99.90
2022-08-03T06:52:06.127Z,99.90
2022-08-03T06:54:34.714Z,99.90
2022-08-03T06:57:02.722Z,99.90
2022-08-03T07:00:07.971Z,99.90
2022-08-03T07:02:20.423Z,99.90
2022-08-03T07:04:48.810Z,99.90
2022-08-03T07:07:17.480Z,99.90
2022-08-03T07:09:56.364Z,99.90
2022-08-03T07:12:26.270Z,99.90
2022-08-03T07:14:58.191Z,99.90
2022-08-03T07:17:29.059Z,99.90
2022-08-03T07:19:57.092Z,99.90
2022-08-03T07:22:25.265Z,99.90
2022-08-03T07:24:54.743Z,98.00
2022-08-03T07:27:22.760Z,95.60
2022-08-03T07:29:50.799Z,94.20
2022-08-03T07:32:19.095Z,93.00
2022-08-03T07:34:47.307Z,92.80
2022-08-03T07:37:15.505Z,91.50
2022-08-03T07:39:43.515Z,86.50
2022-08-03T07:42:12.866Z,82.30
2022-08-03T07:44:40.924Z,80.00
2022-08-03T07:47:09.182Z,77.50
2022-08-03T07:49:40.392Z,76.30
2022-08-03T07:52:28.302Z,76.20
2022-08-03T07:54:56.589Z,76.40
2022-08-03T07:57:26.173Z,72.10
2022-08-03T08:00:01.597Z,72.80
2022-08-03T08:02:30.560Z,75.30
2022-08-03T08:05:02.261Z,75.70
2022-08-03T08:07:33.481Z,77.60
2022-08-03T08:10:01.478Z,72.00
2022-08-03T08:12:30.907Z,70.10
2022-08-03T08:14:58.925Z,68.30
2022-08-03T08:17:26.979Z,67.00
2022-08-03T08:19:55.168Z,65.90
2022-08-03T08:22:29.872Z,64.10
2022-08-03T08:24:59.050Z,61.80
2022-08-03T08:27:27.499Z,60.40
2022-08-03T08:30:02.527Z,56.70
2022-08-03T08:32:37.429Z,57.20
2022-08-03T08:35:06.108Z,55.90
2022-08-03T08:37:34.133Z,53.00
2022-08-03T08:40:02.155Z,52.70
2022-08-03T08:42:30.206Z,54.30
2022-08-03T08:45:00.090Z,53.50
2022-08-03T08:47:51.781Z,51.40
2022-08-03T08:50:28.168Z,50.60
2022-08-03T08:52:56.452Z,51.10
2022-08-03T08:55:24.928Z,50.60
2022-08-03T08:57:54.054Z,52.80
2022-08-03T09:00:23.461Z,52.90
2022-08-03T09:02:51.626Z,55.10
2022-08-03T09:05:31.500Z,57.10
2022-08-03T09:08:09.050Z,56.30
2022-08-03T09:10:37.070Z,57.00
2022-08-03T09:13:05.145Z,55.00
2022-08-03T09:15:34.639Z,52.70
2022-08-03T09:18:03.698Z,52.40
2022-08-03T09:20:33.709Z,50.10
2022-08-03T09:23:09.740Z,50.90
2022-08-03T09:26:00.056Z,51.00
2022-08-03T09:28:57.939Z,53.80
2022-08-03T09:31:30.250Z,51.30
2022-08-03T09:34:01.207Z,50.50
2022-08-03T09:36:35.697Z,50.60
2022-08-03T09:39:05.918Z,49.90
2022-08-03T09:41:34.161Z,50.50
2022-08-03T09:44:02.281Z,49.10
2022-08-03T09:46:33.365Z,49.10
2022-08-03T09:49:11.746Z,48.30
2022-08-03T09:52:32.416Z,49.20
2022-08-03T09:54:28.597Z,48.10
2022-08-03T09:56:57.057Z,50.60
2022-08-03T09:59:26.107Z,49.00
2022-08-03T10:01:55.837Z,50.10
2022-08-03T10:04:24.553Z,49.60
2022-08-03T10:07:06.082Z,48.60
2022-08-03T10:09:34.448Z,48.80
2022-08-03T10:12:09.098Z,48.40
2022-08-03T10:14:38.881Z,50.90
2022-08-03T10:17:08.711Z,51.00
2022-08-03T10:19:36.778Z,49.90
2022-08-03T10:22:05.838Z,49.30
2022-08-03T10:24:35.455Z,48.50
2022-08-03T10:27:04.541Z,49.20
2022-08-03T10:29:35.981Z,48.70
2022-08-03T10:32:05.622Z,49.40
2022-08-03T10:34:36.178Z,49.00
2022-08-03T10:37:09.261Z,49.30
2022-08-03T10:39:37.321Z,48.80
2022-08-03T10:42:06.429Z,49.80
2022-08-03T10:44:43.486Z,48.80
2022-08-03T10:47:11.686Z,48.90
2022-08-03T10:49:41.525Z,48.90
2022-08-03T10:52:13.866Z,48.90
2022-08-03T10:55:16.319Z,48.60
2022-08-03T10:57:48.804Z,49.50
2022-08-03T11:00:18.801Z,50.50
2022-08-03T11:03:06.635Z,49.50
2022-08-03T11:05:37.253Z,50.40
2022-08-03T11:08:20.070Z,50.10
2022-08-03T11:10:48.273Z,49.40
2022-08-03T11:13:17.079Z,49.80
2022-08-03T11:15:45.796Z,49.60
2022-08-03T11:18:14.402Z,49.60
2022-08-03T11:20:50.515Z,47.70
2022-08-03T11:23:20.128Z,48.70
2022-08-03T11:26:11.829Z,49.60
2022-08-03T11:28:40.319Z,50.10
2022-08-03T11:31:48.604Z,50.10
2022-08-03T11:34:16.944Z,49.10
2022-08-03T11:37:03.566Z,48.20
2022-08-03T11:39:40.744Z,48.60
2022-08-03T11:42:29.117Z,48.60
2022-08-03T11:44:57.726Z,49.10
2022-08-03T11:47:27.084Z,48.50
2022-08-03T11:49:55.898Z,48.90
2022-08-03T11:52:27.222Z,47.70
2022-08-03T11:54:58.080Z,48.50
2022-08-03T11:58:58.162Z,47.90
2022-08-03T12:00:26.061Z,49.80
2022-08-03T12:03:05.726Z,48.00
2022-08-03T12:05:34.547Z,48.50
2022-08-03T12:08:06.416Z,49.10
2022-08-03T12:10:36.698Z,49.30
2022-08-03T12:14:45.072Z,48.70
2022-08-03T12:15:57.698Z,49.20
2022-08-03T12:18:26.175Z,49.80
2022-08-03T12:20:54.685Z,50.00
2022-08-03T12:23:22.722Z,48.80
2022-08-03T12:25:52.428Z,48.70
2022-08-03T12:28:36.060Z,49.60
2022-08-03T12:31:06.445Z,49.20
2022-08-03T12:33:54.472Z,49.60
2022-08-03T12:36:22.564Z,49.60
2022-08-03T12:38:56.150Z,49.90
2022-08-03T12:41:30.637Z,50.00
2022-08-03T12:43:58.729Z,49.00
2022-08-03T12:46:31.046Z,50.00
2022-08-03T12:49:00.043Z,49.90
2022-08-03T12:51:28.562Z,49.50
2022-08-03T12:53:57.643Z,49.50
2022-08-03T12:56:26.289Z,50.10
2022-08-03T12:58:55.746Z,50.20
2022-08-03T13:01:24.507Z,50.10
2022-08-03T13:03:54.651Z,50.20
2022-08-03T13:06:24.325Z,50.00
2022-08-03T13:09:02.697Z,49.50
2022-08-03T13:11:57.759Z,48.70
2022-08-03T13:14:20.667Z,48.30
2022-08-03T13:16:49.295Z,49.10
2022-08-03T13:19:17.568Z,48.40
2022-08-03T13:21:53.782Z,49.00
2022-08-03T13:24:32.808Z,49.00
2022-08-03T13:27:00.840Z,48.60
2022-08-03T13:29:50.374Z,49.10
2022-08-03T13:32:18.365Z,49.00
2022-08-03T13:34:46.597Z,47.30
2022-08-03T13:37:14.953Z,48.10
2022-08-03T13:39:48.211Z,48.90
2022-08-03T13:42:28.351Z,48.70
2022-08-03T13:44:57.790Z,49.10
2022-08-03T13:47:25.782Z,49.60
2022-08-03T13:49:54.106Z,47.80
2022-08-03T13:52:28.670Z,49.00
2022-08-03T13:54:56.685Z,50.50
2022-08-03T13:58:05.417Z,50.20
2022-08-03T14:00:26.632Z,51.10
2022-08-03T14:03:02.724Z,51.40
2022-08-03T14:05:32.744Z,50.80
2022-08-03T14:08:04.209Z,52.90
2022-08-03T14:10:33.167Z,53.80
2022-08-03T14:13:01.388Z,54.60
2022-08-03T14:15:30.802Z,54.70
2022-08-03T14:17:59.078Z,54.20
2022-08-03T14:20:38.531Z,54.90
2022-08-03T14:23:15.329Z,53.40
2022-08-03T14:25:50.339Z,53.90
2022-08-03T14:28:20.393Z,52.20
2022-08-03T14:30:49.827Z,52.80
2022-08-03T14:33:17.906Z,54.10
2022-08-03T14:35:45.925Z,52.70
2022-08-03T14:38:14.080Z,54.70
2022-08-03T14:40:42.145Z,53.80
2022-08-03T14:43:10.146Z,54.80
2022-08-03T14:45:38.220Z,56.50
2022-08-03T14:50:29.015Z,55.90
2022-08-03T14:50:56.810Z,56.10
2022-08-03T14:53:25.172Z,55.30
2022-08-03T14:55:53.666Z,54.00
2022-08-03T14:58:22.422Z,53.80
2022-08-03T15:00:50.953Z,53.60
2022-08-03T15:03:23.688Z,53.30
2022-08-03T15:05:52.927Z,56.20
2022-08-03T15:08:21.173Z,53.20
2022-08-03T15:10:49.459Z,53.20
2022-08-03T15:13:17.618Z,54.70
2022-08-03T15:15:45.685Z,54.90
2022-08-03T15:18:13.708Z,55.00
2022-08-03T15:20:45.587Z,53.80
2022-08-03T15:23:15.057Z,55.30
2022-08-03T15:26:02.192Z,53.80
2022-08-03T15:28:31.353Z,53.10
2022-08-03T15:30:59.509Z,52.80
2022-08-03T15:33:27.493Z,53.30
2022-08-03T15:35:57.170Z,53.80
2022-08-03T15:38:25.719Z,54.30
2022-08-03T15:40:54.518Z,54.30
2022-08-03T15:43:22.567Z,54.00
2022-08-03T15:46:12.833Z,51.90
2022-08-03T15:48:38.623Z,52.10
2022-08-03T15:51:08.403Z,53.60
2022-08-03T15:53:36.466Z,54.20
2022-08-03T15:56:09.792Z,52.80
2022-08-03T15:59:09.397Z,52.00
2022-08-03T16:01:27.882Z,51.70
2022-08-03T16:03:56.036Z,51.40
2022-08-03T16:06:34.882Z,49.50
2022-08-03T16:09:04.265Z,49.40
2022-08-03T16:11:32.334Z,50.50
2022-08-03T16:14:12.809Z,48.40
2022-08-03T16:16:48.583Z,46.80
2022-08-03T16:19:16.759Z,46.90
2022-08-03T16:21:48.387Z,44.10
2022-08-03T16:24:17.532Z,42.00
2022-08-03T16:26:47.990Z,43.10
2022-08-03T16:29:23.383Z,42.70
2022-08-03T16:31:52.419Z,44.90
2022-08-03T16:34:20.708Z,46.70
2022-08-03T16:36:50.111Z,46.20
2022-08-03T16:39:18.186Z,46.00
2022-08-03T16:41:53.854Z,46.00
2022-08-03T16:44:29.621Z,49.40
2022-08-03T16:46:57.666Z,47.80
2022-08-03T16:49:52.993Z,47.80
2022-08-03T16:52:16.766Z,48.50
2022-08-03T16:54:53.062Z,49.00
2022-08-03T16:57:56.515Z,50.00
2022-08-03T17:00:11.466Z,49.40
2022-08-03T17:02:43.040Z,49.50
2022-08-03T17:05:16.586Z,50.10
2022-08-03T17:07:50.755Z,50.10
2022-08-03T17:10:27.270Z,49.10
2022-08-03T17:12:55.614Z,48.00
2022-08-03T17:15:38.150Z,48.20
2022-08-03T17:18:14.606Z,48.00
2022-08-03T17:20:43.122Z,48.40
2022-08-03T17:23:34.358Z,48.60
2022-08-03T17:26:04.767Z,48.70
2022-08-03T17:28:51.737Z,48.20
2022-08-03T17:31:32.282Z,47.70
2022-08-03T17:34:14.474Z,48.10
2022-08-03T17:42:30.008Z,47.80
2022-08-03T17:45:02.012Z,46.70
2022-08-03T17:47:41.418Z,47.90
2022-08-03T17:50:24.341Z,47.40
2022-08-03T17:52:59.481Z,47.20
2022-08-03T17:55:55.540Z,48.40
2022-08-03T17:58:22.110Z,48.20
2022-08-03T18:02:04.278Z,48.90
2022-08-03T18:04:00.899Z,49.50
2022-08-03T18:06:30.874Z,48.90
2022-08-03T18:08:59.986Z,49.50
2022-08-03T18:11:35.552Z,50.10
2022-08-03T18:14:16.303Z,49.50
2022-08-03T18:16:46.783Z,50.00
2022-08-03T18:19:15.157Z,50.00
2022-08-03T18:22:02.905Z,51.30
2022-08-03T18:24:31.725Z,56.60
2022-08-03T18:27:02.613Z,58.40
2022-08-03T18:29:31.830Z,58.70
2022-08-03T18:32:03.825Z,59.40
2022-08-03T18:34:34.486Z,60.10
2022-08-03T18:37:07.260Z,60.60
2022-08-03T18:39:49.353Z,62.30
2022-08-03T18:42:20.448Z,61.50
2022-08-03T18:44:56.507Z,62.70
2022-08-03T18:47:50.727Z,62.80
2022-08-03T18:50:25.117Z,63.70
2022-08-03T18:52:59.375Z,64.30
2022-08-03T18:55:32.906Z,65.50
2022-08-03T18:58:07.078Z,66.20
2022-08-03T19:00:54.033Z,66.00
2022-08-03T19:03:24.117Z,66.50
2022-08-03T19:06:02.760Z,67.50
2022-08-03T19:08:40.511Z,68.80
2022-08-03T19:11:10.975Z,68.70
2022-08-03T19:13:50.165Z,69.10
2022-08-03T19:16:22.294Z,69.50
2022-08-03T19:18:50.946Z,70.00
2022-08-03T19:21:20.221Z,71.50
2022-08-03T19:23:50.549Z,71.70
2022-08-03T19:26:30.006Z,72.10
2022-08-03T19:29:00.687Z,72.10
2022-08-03T19:31:31.195Z,72.20
2022-08-03T19:34:03.682Z,73.00
2022-08-03T19:36:32.734Z,72.70
2022-08-03T19:39:00.853Z,74.00
2022-08-03T19:41:42.160Z,73.70
2022-08-03T19:47:02.343Z,74.80
2022-08-03T19:49:57.079Z,74.50
2022-08-03T19:52:24.389Z,75.00
2022-08-03T19:55:00.533Z,76.50
2022-08-03T19:57:30.383Z,77.30
2022-08-03T20:00:03.452Z,78.10
2022-08-03T20:02:32.130Z,77.80
2022-08-03T20:05:00.526Z,78.60
2022-08-03T20:07:30.536Z,79.00
2022-08-03T20:09:59.688Z,79.50
2022-08-03T20:12:35.586Z,80.10
2022-08-03T20:15:10.626Z,80.80
2022-08-03T20:17:56.220Z,81.80
2022-08-03T20:20:28.004Z,81.90
2022-08-03T20:22:57.820Z,83.80
2022-08-03T20:25:38.055Z,84.30
2022-08-03T20:28:14.147Z,84.70
2022-08-03T20:30:47.306Z,86.00
2022-08-03T20:33:18.810Z,86.60
2022-08-03T20:35:49.146Z,87.60
2022-08-03T20:38:18.512Z,88.10
2022-08-03T20:40:47.061Z,89.00
2022-08-03T20:43:15.219Z,89.40
2022-08-03T20:46:01.077Z,89.80
2022-08-03T20:48:33.423Z,90.10
2022-08-03T20:51:01.508Z,90.10
2022-08-03T20:53:59.427Z,90.40
2022-08-03T20:56:18.262Z,90.70
2022-08-03T20:58:50.180Z,90.60
2022-08-03T21:01:27.462Z,91.10
2022-08-03T21:03:56.023Z,90.90
2022-08-03T21:06:27.477Z,91.40
2022-08-03T21:09:03.770Z,91.50
2022-08-03T21:11:41.458Z,91.80
2022-08-03T21:13:02.804Z,74.00
2022-08-03T21:14:14.202Z,92.00
2022-08-03T21:16:44.884Z,92.00
2022-08-03T21:19:13.422Z,92.40
2022-08-03T21:21:42.069Z,92.40
2022-08-03T21:24:11.931Z,92.90
2022-08-03T21:26:40.616Z,93.10
2022-08-03T21:29:08.874Z,93.80
2022-08-03T21:31:40.214Z,93.90
2022-08-03T21:34:09.613Z,94.10
2022-08-03T21:36:37.987Z,94.40
2022-08-03T21:39:07.342Z,94.90
2022-08-03T21:41:36.525Z,95.30
2022-08-03T21:44:05.327Z,95.70
2022-08-03T21:46:35.425Z,96.50
2022-08-03T21:50:06.133Z,97.40
2022-08-03T21:51:55.577Z,98.40
2022-08-03T21:54:28.338Z,98.60
2022-08-03T21:56:57.967Z,99.30
2022-08-03T21:59:26.789Z,99.90
2022-08-03T22:01:58.617Z,99.90
2022-08-03T22:04:50.850Z,99.90
2022-08-03T22:07:17.853Z,99.90
2022-08-03T22:09:51.236Z,99.90
2022-08-03T22:12:21.802Z,99.90
2022-08-03T22:14:50.128Z,99.90
2022-08-03T22:17:55.146Z,99.90
2022-08-03T22:20:19.343Z,99.90
2022-08-03T22:22:53.519Z,99.90
2022-08-03T22:25:25.553Z,99.90
2022-08-03T22:27:53.785Z,99.90
2022-08-03T22:30:21.869Z,99.90
2022-08-03T22:32:53.067Z,99.90
2022-08-03T22:35:22.367Z,99.90
2022-08-03T22:37:53.645Z,99.90
2022-08-03T22:40:21.810Z,99.90
2022-08-03T22:42:50.596Z,99.90
2022-08-03T22:46:06.845Z,99.90
2022-08-03T22:48:08.652Z,99.90
2022-08-03T22:50:36.924Z,99.90
2022-08-03T22:53:07.766Z,99.90
2022-08-03T22:55:35.842Z,99.90
2022-08-03T22:58:03.861Z,99.90
2022-08-03T23:00:31.929Z,99.90
2022-08-03T23:03:01.480Z,99.90
2022-08-03T23:06:02.636Z,99.90
2022-08-03T23:08:21.958Z,99.90
2022-08-03T23:10:50.178Z,99.90
2022-08-03T23:13:18.879Z,99.90
2022-08-03T23:15:50.118Z,99.90
2022-08-03T23:18:19.509Z,99.90
2022-08-03T23:20:50.301Z,99.90
2022-08-03T23:23:20.552Z,99.90
2022-08-03T23:25:50.568Z,99.90
2022-08-03T23:28:18.933Z,99.90
2022-08-03T23:30:47.593Z,99.90
2022-08-03T23:33:15.989Z,99.90
2022-08-03T23:36:27.887Z,99.90
2022-08-03T23:38:48.727Z,99.90
2022-08-03T23:41:18.600Z,99.90
2022-08-03T23:43:53.704Z,99.90
2022-08-03T23:46:22.790Z,99.90
2022-08-03T23:48:50.868Z,99.90
2022-08-03T23:51:23.776Z,99.90
2022-08-03T23:54:02.055Z,99.90
2022-08-03T23:56:36.134Z,99.90
2022-08-03T23:59:08.155Z,99.90
